Time;durP1;ratioP1;P1;durP2;ratioP2;P2;SDS_P1;SDS_P2;PMS_P1;PMS_P2;Temp;Humidity;BMP_temperature;BMP_pressure;BME280_temperature;BME280_humidity;BME280_pressure;Samples;Min_cycle;Max_cycle;Signal;HPM_P1;HPM_P2
2023/01/15 00:01:33;;;;;;;;;;;;;;;;;;5032153;28;19959;-62
2023/01/15 00:03:59;;;;;;;;;;;;;;;;;;5032311;28;19936;-62
2023/01/15 00:06:25;;;;;;;;;;;;;;;;;;5032278;28;19940;-62
2023/01/15 00:08:51;;;;;;;;;;;;;;;;;;5032008;28;19953;-62
2023/01/15 00:11:17;;;;;;;;;;;;;;;;;;5032121;28;19908;-62
2023/01/15 00:13:43;;;;;;;;;;;;;;;;;;5047500;28;19932;-62
2023/01/15 00:16:09;;;;;;;;;;;;;;;;;;5031941;28;20281;-62
2023/01/15 00:18:35;;;;;;;;;;;;;;;;;;5031895;28;19963;-62
2023/01/15 00:21:01;;;;;;;;;;;;;;;;;;5031991;28;20015;-62
2023/01/15 00:28:56;;;;;;;;;;;;;;;;;;5031882;28;20331;-62
2023/01/15 00:31:22;;;;;;;;;;;;;;;;;;5031800;28;19909;-62
2023/01/15 00:33:48;;;;;;;;;;;;;;;;;;5031929;28;19909;-63
2023/01/15 00:36:14;;;;;;;;;;;;;;;;;;5031912;28;19935;-62
2023/01/15 00:38:39;;;;;;;;;;;;;;;;;;5031767;28;20188;-62
2023/01/15 00:41:05;;;;;;;;;;;;;;;;;;5031557;28;19917;-63
2023/01/15 00:43:31;;;;;;;;;;;;;;;;;;5031859;28;20447;-62
2023/01/15 00:45:57;;;;;;;;;;;;;;;;;;5031830;28;20011;-62
2023/01/15 00:48:23;;;;;;;;;;;;;;;;;;5032678;28;20020;-62
2023/01/15 00:50:49;;;;;;;;;;;;;;;;;;5051099;28;20336;-63
2023/01/15 00:53:15;;;;;;;;;;;;;;;;;;5035786;28;19909;-62
2023/01/15 00:55:41;;;;;;;;;;;;;;;;;;5036218;28;19938;-61
2023/01/15 00:58:07;;;;;;;;;;;;;;;;;;5035603;28;19909;-62
2023/01/15 01:00:33;;;;;;;;;;;;;;;;;;5035480;28;19917;-63
2023/01/15 01:02:59;;;;;;;;;;;;;;;;;;5035576;28;19916;-62
2023/01/15 01:05:25;;;;;;;;;;;;;;;;;;5035553;28;19916;-62
2023/01/15 01:07:50;;;;;;;;;;;;;;;;;;5035521;28;19921;-63
2023/01/15 01:10:16;;;;;;;;;;;;;;;;;;5035144;28;20277;-63
2023/01/15 01:12:42;;;;;;;;;;;;;;;;;;5035670;28;19916;-62
2023/01/15 01:15:08;;;;;;;;;;;;;;;;;;5035385;28;20389;-63
2023/01/15 01:17:34;;;;;;;;;;;;;;;;;;5050726;28;20008;-63
2023/01/15 01:20:00;;;;;;;;;;;;;;;;;;5035107;28;20000;-63
2023/01/15 01:22:26;;;;;;;;;;;;;;;;;;5035245;28;20364;-62
2023/01/15 01:24:52;;;;;;;;;;;;;;;;;;5035195;28;19992;-63
2023/01/15 01:27:18;;;;;;;;;;;;;;;;;;5035128;28;19909;-63
2023/01/15 01:29:44;;;;;;;;;;;;;;;;;;5035086;28;19916;-62
2023/01/15 01:32:10;;;;;;;;;;;;;;;;;;5035039;28;20365;-63
2023/01/15 01:34:36;;;;;;;;;;;;;;;;;;5035014;28;19992;-63
2023/01/15 01:37:02;;;;;;;;;;;;;;;;;;5050420;28;20048;-62
2023/01/15 01:39:28;;;;;;;;;;;;;;;;;;5034513;28;19948;-63
2023/01/15 01:41:54;;;;;;;;;;;;;;;;;;5050382;28;19959;-63
2023/01/15 01:44:19;;;;;;;;;;;;;;;;;;5034881;28;19916;-63
2023/01/15 01:46:45;;;;;;;;;;;;;;;;;;5034754;28;20321;-63
2023/01/15 01:49:11;;;;;;;;;;;;;;;;;;5034442;28;19909;-63
2023/01/15 01:51:37;;;;;;;;;;;;;;;;;;5034700;28;19916;-63
2023/01/15 01:54:03;;;;;;;;;;;;;;;;;;5049990;28;19913;-63
2023/01/15 01:56:29;;;;;;;;;;;;;;;;;;5034691;28;19909;-63
2023/01/15 01:58:55;;;;;;;;;;;;;;;;;;5033857;28;20031;-63
2023/01/15 02:01:21;;;;;;;;;;;;;;;;;;5049726;28;20066;-63
2023/01/15 02:03:47;;;;;;;;;;;;;;;;;;5034524;28;19909;-63
2023/01/15 02:06:13;;;;;;;;;;;;;;;;;;5034504;28;20331;-63
2023/01/15 02:08:39;;;;;;;;;;;;;;;;;;5049544;28;19921;-63
2023/01/15 02:11:06;;;;;;;;;;;;;;;;;;5034276;28;19911;-63
2023/01/15 02:13:32;;;;;;;;;;;;;;;;;;5034266;28;19916;-62
2023/01/15 02:15:57;;;;;;;;;;;;;;;;;;5049489;28;20298;-63
2023/01/15 02:18:23;;;;;;;;;;;;;;;;;;5034119;28;19909;-63
2023/01/15 02:20:49;;;;;;;;;;;;;;;;;;5034676;28;19913;-63
2023/01/15 02:23:15;;;;;;;;;;;;;;;;;;5034147;28;19909;-63
2023/01/15 02:25:41;;;;;;;;;;;;;;;;;;5034141;28;20340;-63
2023/01/15 02:28:07;;;;;;;;;;;;;;;;;;5033795;28;19917;-63
2023/01/15 02:30:33;;;;;;;;;;;;;;;;;;5033823;28;19917;-63
2023/01/15 02:32:59;;;;;;;;;;;;;;;;;;5049365;28;19909;-63
2023/01/15 02:35:25;;;;;;;;;;;;;;;;;;5033924;28;20266;-63
2023/01/15 02:37:51;;;;;;;;;;;;;;;;;;5033849;28;20002;-63
2023/01/15 02:40:17;;;;;;;;;;;;;;;;;;5073171;22;19925;-63
2023/01/15 02:42:43;;;;;;;;;;;;;;;;;;5073766;28;20003;-63
2023/01/15 02:45:09;;;;;;;;;;;;;;;;;;5072247;28;19948;-63
2023/01/15 02:47:35;;;;;;;;;;;;;;;;;;5073603;28;19999;-63
2023/01/15 02:50:00;;;;;;;;;;;;;;;;;;5073317;28;19916;-63
2023/01/15 02:52:26;;;;;;;;;;;;;;;;;;5073438;28;19909;-63
2023/01/15 02:54:52;;;;;;;;;;;;;;;;;;5073496;28;20344;-63
2023/01/15 02:57:18;;;;;;;;;;;;;;;;;;5073364;28;20037;-63
2023/01/15 02:59:44;;;;;;;;;;;;;;;;;;5073065;28;19935;-64
2023/01/15 03:02:10;;;;;;;;;;;;;;;;;;5073304;28;19920;-63
2023/01/15 03:04:36;;;;;;;;;;;;;;;;;;5073283;28;19909;-64
2023/01/15 03:07:03;;;;;;;;;;;;;;;;;;5073245;28;19914;-63
2023/01/15 03:09:29;;;;;;;;;;;;;;;;;;5072955;28;19915;-63
2023/01/15 03:11:55;;;;;;;;;;;;;;;;;;5072513;28;20007;-63
2023/01/15 03:14:21;;;;;;;;;;;;;;;;;;5072973;28;19923;-63
2023/01/15 03:16:47;;;;;;;;;;;;;;;;;;5073017;28;19909;-63
2023/01/15 03:19:13;;;;;;;;;;;;;;;;;;5072683;28;20292;-63
2023/01/15 03:21:39;;;;;;;;;;;;;;;;;;5072860;28;20054;-63
2023/01/15 03:24:05;;;;;;;;;;;;;;;;;;5072135;28;19948;-63
2023/01/15 03:26:31;;;;;;;;;;;;;;;;;;5071632;28;20384;-63
2023/01/15 03:28:57;;;;;;;;;;;;;;;;;;5072466;28;20001;-63
2023/01/15 03:31:23;;;;;;;;;;;;;;;;;;5072678;28;19977;-63
2023/01/15 03:33:49;;;;;;;;;;;;;;;;;;5072651;28;20191;-63
2023/01/15 03:36:14;;;;;;;;;;;;;;;;;;5072569;28;19909;-63
2023/01/15 03:38:40;;;;;;;;;;;;;;;;;;5072410;28;19916;-63
2023/01/15 03:41:06;;;;;;;;;;;;;;;;;;5072243;28;19916;-64
2023/01/15 03:43:41;;;;;;;;;;;;;;;;;;5072528;28;19932;-63
2023/01/15 03:46:07;;;;;;;;;;;;;;;;;;5072542;28;20010;-63
2023/01/15 03:48:33;;;;;;;;;;;;;;;;;;5072149;28;20396;-63
2023/01/15 03:50:59;;;;;;;;;;;;;;;;;;5072310;28;19956;-63
2023/01/15 03:53:25;;;;;;;;;;;;;;;;;;5072359;28;20221;-63
2023/01/15 03:55:51;;;;;;;;;;;;;;;;;;5072243;28;20369;-64
2023/01/15 03:58:17;;;;;;;;;;;;;;;;;;5072079;28;20384;-64
2023/01/15 04:00:43;;;;;;;;;;;;;;;;;;5072152;28;20284;-63
2023/01/15 04:03:09;;;;;;;;;;;;;;;;;;5072167;28;20003;-64
2023/01/15 04:05:35;;;;;;;;;;;;;;;;;;5072329;28;20011;-64
2023/01/15 04:08:01;;;;;;;;;;;;;;;;;;5072360;28;20412;-64
2023/01/15 04:10:26;;;;;;;;;;;;;;;;;;5072232;28;19909;-63
2023/01/15 04:12:52;;;;;;;;;;;;;;;;;;5072210;28;20381;-64
2023/01/15 04:15:18;;;;;;;;;;;;;;;;;;5070743;28;20271;-63
2023/01/15 04:17:44;;;;;;;;;;;;;;;;;;5071997;28;19934;-64
2023/01/15 04:20:10;;;;;;;;;;;;;;;;;;5071795;28;19995;-63
2023/01/15 04:22:36;;;;;;;;;;;;;;;;;;5071601;28;20040;-63
2023/01/15 04:25:02;;;;;;;;;;;;;;;;;;5071926;28;19991;-63
2023/01/15 04:27:28;;;;;;;;;;;;;;;;;;5071842;28;19974;-63
2023/01/15 04:29:54;;;;;;;;;;;;;;;;;;5071587;28;19912;-63
2023/01/15 04:32:20;;;;;;;;;;;;;;;;;;5071787;28;20391;-63
2023/01/15 04:34:46;;;;;;;;;;;;;;;;;;5071906;28;20097;-63
2023/01/15 04:37:12;;;;;;;;;;;;;;;;;;5070542;28;19908;-63
2023/01/15 04:39:38;;;;;;;;;;;;;;;;;;5071343;28;20376;-63
2023/01/15 04:44:48;;;;;;;;;;;;;;;;;;5071771;28;20454;-63
2023/01/15 04:47:14;;;;;;;;;;;;;;;;;;5071711;28;19955;-63
2023/01/15 04:49:40;;;;;;;;;;;;;;;;;;5071577;28;20241;-64
2023/01/15 04:52:06;;;;;;;;;;;;;;;;;;5071630;28;19962;-64
2023/01/15 04:54:32;;;;;;;;;;;;;;;;;;5071629;28;19912;-64
2023/01/15 04:56:58;;;;;;;;;;;;;;;;;;5071692;28;19962;-64
2023/01/15 04:59:24;;;;;;;;;;;;;;;;;;5071284;28;19912;-64
2023/01/15 05:01:51;;;;;;;;;;;;;;;;;;5070486;28;20361;-64
2023/01/15 05:04:17;;;;;;;;;;;;;;;;;;5071574;28;20360;-64
2023/01/15 05:06:43;;;;;;;;;;;;;;;;;;5071485;28;19908;-64
2023/01/15 05:09:08;;;;;;;;;;;;;;;;;;5071259;28;20004;-64
2023/01/15 05:11:35;;;;;;;;;;;;;;;;;;5071404;28;19939;-64
2023/01/15 05:14:01;;;;;;;;;;;;;;;;;;5071357;28;19909;-64
2023/01/15 05:16:27;;;;;;;;;;;;;;;;;;5071412;28;19912;-64
2023/01/15 05:18:53;;;;;;;;;;;;;;;;;;5071280;28;19909;-64
2023/01/15 05:21:22;;;;;;;;;;;;;;;;;;5071206;28;19920;-64
2023/01/15 05:23:48;;;;;;;;;;;;;;;;;;5069984;28;20334;-64
2023/01/15 05:26:14;;;;;;;;;;;;;;;;;;5071449;28;19938;-64
2023/01/15 05:28:40;;;;;;;;;;;;;;;;;;5071028;28;20007;-64
2023/01/15 05:31:06;;;;;;;;;;;;;;;;;;5071237;28;19914;-64
2023/01/15 05:33:32;;;;;;;;;;;;;;;;;;5071354;28;19970;-64
2023/01/15 05:35:58;;;;;;;;;;;;;;;;;;5074621;28;20379;-64
2023/01/15 05:38:24;;;;;;;;;;;;;;;;;;5074703;28;19920;-64
2023/01/15 05:40:50;;;;;;;;;;;;;;;;;;5074544;28;20380;-64
2023/01/15 05:43:16;;;;;;;;;;;;;;;;;;5074715;28;19916;-64
2023/01/15 05:45:42;;;;;;;;;;;;;;;;;;5074826;28;19915;-64
2023/01/15 05:48:08;;;;;;;;;;;;;;;;;;5074515;28;19908;-64
2023/01/15 05:50:34;;;;;;;;;;;;;;;;;;5074512;28;19916;-64
2023/01/15 05:52:59;;;;;;;;;;;;;;;;;;5074495;28;19913;-64
2023/01/15 05:55:25;;;;;;;;;;;;;;;;;;5074477;28;19962;-64
2023/01/15 05:57:51;;;;;;;;;;;;;;;;;;5074469;28;19919;-64
2023/01/15 06:00:17;;;;;;;;;;;;;;;;;;5074220;28;19915;-63
2023/01/15 06:02:43;;;;;;;;;;;;;;;;;;5074382;28;19991;-64
2023/01/15 06:05:09;;;;;;;;;;;;;;;;;;5074660;28;20342;-63
2023/01/15 06:07:35;;;;;;;;;;;;;;;;;;5074332;28;20337;-64
2023/01/15 06:10:01;;;;;;;;;;;;;;;;;;5074081;28;19915;-64
2023/01/15 06:12:27;;;;;;;;;;;;;;;;;;5074295;28;19908;-64
2023/01/15 06:14:53;;;;;;;;;;;;;;;;;;5074491;28;19908;-64
2023/01/15 06:17:18;;;;;;;;;;;;;;;;;;5074205;28;19931;-64
2023/01/15 06:19:44;;;;;;;;;;;;;;;;;;5074139;28;20403;-64
2023/01/15 06:22:10;;;;;;;;;;;;;;;;;;5073963;28;19912;-64
2023/01/15 06:24:36;;;;;;;;;;;;;;;;;;5072740;28;19915;-64
2023/01/15 06:27:02;;;;;;;;;;;;;;;;;;5074067;28;19909;-64
2023/01/15 06:29:28;;;;;;;;;;;;;;;;;;5073687;28;19908;-64
2023/01/15 06:31:54;;;;;;;;;;;;;;;;;;5074193;28;19912;-64
2023/01/15 06:34:20;;;;;;;;;;;;;;;;;;5074010;28;19931;-64
2023/01/15 06:36:46;;;;;;;;;;;;;;;;;;5073750;28;19912;-64
2023/01/15 06:39:12;;;;;;;;;;;;;;;;;;5073602;28;19909;-64
2023/01/15 06:47:19;;;;;;;;;;;;;;;;;;5073631;28;19930;-64
2023/01/15 06:49:45;;;;;;;;;;;;;;;;;;5073268;28;19936;-64
2023/01/15 06:52:11;;;;;;;;;;;;;;;;;;5073676;28;20025;-64
2023/01/15 06:54:37;;;;;;;;;;;;;;;;;;5072179;28;19908;-64
2023/01/15 06:57:03;;;;;;;;;;;;;;;;;;5073519;28;20376;-64
2023/01/15 06:59:29;;;;;;;;;;;;;;;;;;5073036;28;19996;-64
2023/01/15 07:01:55;;;;;;;;;;;;;;;;;;5073350;28;20351;-64
2023/01/15 07:04:21;;;;;;;;;;;;;;;;;;5073649;28;19912;-64
2023/01/15 07:06:47;;;;;;;;;;;;;;;;;;5073385;28;20285;-64
2023/01/15 07:09:13;;;;;;;;;;;;;;;;;;5072930;28;19954;-64
2023/01/15 07:11:48;;;;;;;;;;;;;;;;;;5073090;28;19909;-64
2023/01/15 07:14:14;;;;;;;;;;;;;;;;;;5073211;28;19920;-64
2023/01/15 07:16:39;;;;;;;;;;;;;;;;;;5072951;28;20281;-64
2023/01/15 07:19:05;;;;;;;;;;;;;;;;;;5072968;28;19912;-64
2023/01/15 07:21:31;;;;;;;;;;;;;;;;;;5072764;28;19938;-64
2023/01/15 07:23:57;;;;;;;;;;;;;;;;;;5072870;28;19922;-64
2023/01/15 07:26:23;;;;;;;;;;;;;;;;;;5071422;28;19916;-64
2023/01/15 07:28:49;;;;;;;;;;;;;;;;;;5072549;28;19908;-64
2023/01/15 07:31:15;;;;;;;;;;;;;;;;;;5072652;28;19916;-64
2023/01/15 07:33:41;;;;;;;;;;;;;;;;;;5072701;28;19913;-64
2023/01/15 07:36:07;;;;;;;;;;;;;;;;;;5072618;28;20292;-64
2023/01/15 07:38:33;;;;;;;;;;;;;;;;;;5071124;28;19934;-64
2023/01/15 07:51:59;;;;;;;;;;;;;;;;;;5072423;28;19969;-64
2023/01/15 07:54:25;;;;;;;;;;;;;;;;;;5072262;28;20428;-63
2023/01/15 07:56:51;;;;;;;;;;;;;;;;;;5071822;28;20013;-65
2023/01/15 07:59:17;;;;;;;;;;;;;;;;;;5071929;28;20391;-65
2023/01/15 08:01:43;;;;;;;;;;;;;;;;;;5072152;28;19912;-64
2023/01/15 08:04:09;;;;;;;;;;;;;;;;;;5072013;28;20387;-64
2023/01/15 08:06:35;;;;;;;;;;;;;;;;;;5072126;28;19999;-64
2023/01/15 08:09:00;;;;;;;;;;;;;;;;;;5071922;28;19991;-65
2023/01/15 08:16:56;;;;;;;;;;;;;;;;;;5072137;28;20054;-64
2023/01/15 08:19:23;;;;;;;;;;;;;;;;;;5071706;28;19948;-64
2023/01/15 08:21:49;;;;;;;;;;;;;;;;;;5072003;28;19917;-64
2023/01/15 08:24:15;;;;;;;;;;;;;;;;;;5072004;28;19908;-64
2023/01/15 08:26:41;;;;;;;;;;;;;;;;;;5072030;28;19912;-64
2023/01/15 08:29:07;;;;;;;;;;;;;;;;;;5071664;28;19912;-64
2023/01/15 08:31:33;;;;;;;;;;;;;;;;;;5071891;28;19908;-64
2023/01/15 08:33:59;;;;;;;;;;;;;;;;;;5071720;28;20281;-64
2023/01/15 08:36:25;;;;;;;;;;;;;;;;;;5070515;28;19962;-64
2023/01/15 08:38:51;;;;;;;;;;;;;;;;;;5071667;28;19908;-64
2023/01/15 08:41:17;;;;;;;;;;;;;;;;;;5072084;28;19923;-64
2023/01/15 08:43:44;;;;;;;;;;;;;;;;;;5070457;28;19999;-63
2023/01/15 08:46:10;;;;;;;;;;;;;;;;;;5071761;28;19908;-63
2023/01/15 08:48:36;;;;;;;;;;;;;;;;;;5071405;28;20334;-64
2023/01/15 08:51:02;;;;;;;;;;;;;;;;;;5071691;28;20353;-64
2023/01/15 08:53:28;;;;;;;;;;;;;;;;;;5071789;28;19908;-65
2023/01/15 08:55:54;;;;;;;;;;;;;;;;;;5071694;28;20399;-64
2023/01/15 08:58:20;;;;;;;;;;;;;;;;;;5071413;28;19908;-64
2023/01/15 09:00:47;;;;;;;;;;;;;;;;;;5071465;28;19916;-64
2023/01/15 09:03:13;;;;;;;;;;;;;;;;;;5071540;28;19938;-64
2023/01/15 09:05:39;;;;;;;;;;;;;;;;;;5071725;28;19915;-64
2023/01/15 09:08:05;;;;;;;;;;;;;;;;;;5071781;28;19947;-64
2023/01/15 09:10:31;;;;;;;;;;;;;;;;;;5074292;28;19962;-64
2023/01/15 09:12:56;;;;;;;;;;;;;;;;;;5075381;28;19908;-63
2023/01/15 09:15:22;;;;;;;;;;;;;;;;;;5075383;28;20293;-64
2023/01/15 09:17:48;;;;;;;;;;;;;;;;;;5075112;28;19915;-64
2023/01/15 09:20:14;;;;;;;;;;;;;;;;;;5075007;28;19995;-64
2023/01/15 09:22:40;;;;;;;;;;;;;;;;;;5073920;28;20342;-64
2023/01/15 09:25:06;;;;;;;;;;;;;;;;;;5073815;28;20369;-64
2023/01/15 09:27:33;;;;;;;;;;;;;;;;;;5075073;28;20377;-64
2023/01/15 09:29:59;;;;;;;;;;;;;;;;;;5074886;28;19962;-64
2023/01/15 09:32:25;;;;;;;;;;;;;;;;;;5074914;28;20360;-64
2023/01/15 09:34:51;;;;;;;;;;;;;;;;;;5075013;28;19909;-64
2023/01/15 09:37:17;;;;;;;;;;;;;;;;;;5074923;28;19916;-63
2023/01/15 09:39:43;;;;;;;;;;;;;;;;;;5074577;28;19912;-63
2023/01/15 09:42:09;;;;;;;;;;;;;;;;;;5074753;28;19912;-64
2023/01/15 09:44:35;;;;;;;;;;;;;;;;;;5074827;28;19920;-64
2023/01/15 09:47:00;;;;;;;;;;;;;;;;;;5074630;28;19908;-63
2023/01/15 09:49:26;;;;;;;;;;;;;;;;;;5074470;28;20295;-63
2023/01/15 09:51:52;;;;;;;;;;;;;;;;;;5074794;28;20019;-63
2023/01/15 09:54:18;;;;;;;;;;;;;;;;;;5074589;28;19910;-62
2023/01/15 09:56:44;;;;;;;;;;;;;;;;;;5074588;28;20395;-63
2023/01/15 09:59:10;;;;;;;;;;;;;;;;;;5074350;28;19909;-63
2023/01/15 10:01:36;;;;;;;;;;;;;;;;;;5074360;28;19958;-63
2023/01/15 10:04:02;;;;;;;;;;;;;;;;;;5073273;28;19908;-63
2023/01/15 10:06:28;;;;;;;;;;;;;;;;;;5074425;28;20373;-63
2023/01/15 10:08:54;;;;;;;;;;;;;;;;;;5074196;28;19913;-63
2023/01/15 10:11:21;;;;;;;;;;;;;;;;;;5074262;28;20396;-63
2023/01/15 10:13:46;;;;;;;;;;;;;;;;;;5074485;28;20299;-63
2023/01/15 10:16:12;;;;;;;;;;;;;;;;;;5072853;28;19908;-63
2023/01/15 10:18:42;;;;;;;;;;;;;;;;;;5074180;28;19909;-63
2023/01/15 10:21:08;;;;;;;;;;;;;;;;;;5073678;28;20376;-63
2023/01/15 10:23:39;;;;;;;;;;;;;;;;;;5074088;28;19919;-63
2023/01/15 10:26:04;;;;;;;;;;;;;;;;;;5074193;28;19966;-63
2023/01/15 10:28:30;;;;;;;;;;;;;;;;;;5073762;28;19909;-63
2023/01/15 10:30:56;;;;;;;;;;;;;;;;;;5073874;28;19963;-63
2023/01/15 10:33:22;;;;;;;;;;;;;;;;;;5073887;28;19915;-63
2023/01/15 10:35:48;;;;;;;;;;;;;;;;;;5072574;28;19943;-61
2023/01/15 10:38:14;;;;;;;;;;;;;;;;;;5073588;28;19912;-62
2023/01/15 10:40:40;;;;;;;;;;;;;;;;;;5073475;28;20277;-62
2023/01/15 10:43:06;;;;;;;;;;;;;;;;;;5073703;28;19909;-63
2023/01/15 10:45:32;;;;;;;;;;;;;;;;;;5073649;28;19909;-63
2023/01/15 10:47:58;;;;;;;;;;;;;;;;;;5073619;28;19909;-63
2023/01/15 10:50:24;;;;;;;;;;;;;;;;;;5071913;28;19912;-63
2023/01/15 10:52:50;;;;;;;;;;;;;;;;;;5073392;28;19958;-62
2023/01/15 10:55:16;;;;;;;;;;;;;;;;;;5073506;28;19909;-63
2023/01/15 10:57:42;;;;;;;;;;;;;;;;;;5073361;28;20373;-63
2023/01/15 11:00:08;;;;;;;;;;;;;;;;;;5073126;28;19981;-63
2023/01/15 11:02:34;;;;;;;;;;;;;;;;;;5073246;28;19912;-63
2023/01/15 11:05:00;;;;;;;;;;;;;;;;;;5071867;28;20011;-63
2023/01/15 11:07:25;;;;;;;;;;;;;;;;;;5073152;28;19986;-63
2023/01/15 11:09:51;;;;;;;;;;;;;;;;;;5073008;28;20369;-63
2023/01/15 11:20:13;;;;;;;;;;;;;;;;;;5072825;28;20391;-63
2023/01/15 11:22:39;;;;;;;;;;;;;;;;;;5071540;28;19912;-63
2023/01/15 11:25:07;;;;;;;;;;;;;;;;;;5072922;28;20011;-63
2023/01/15 11:27:33;;;;;;;;;;;;;;;;;;5072787;28;19950;-62
2023/01/15 11:29:59;;;;;;;;;;;;;;;;;;5072405;28;19909;-63
2023/01/15 11:32:25;;;;;;;;;;;;;;;;;;5071951;28;19909;-63
2023/01/15 11:34:51;;;;;;;;;;;;;;;;;;5072688;28;20431;-63
2023/01/15 11:37:16;;;;;;;;;;;;;;;;;;5072568;28;19904;-63
2023/01/15 11:39:42;;;;;;;;;;;;;;;;;;5070830;28;19920;-63
2023/01/15 11:53:07;;;;;;;;;;;;;;;;;;5072486;28;19999;-63
2023/01/15 11:55:33;;;;;;;;;;;;;;;;;;5072441;28;19951;-63
2023/01/15 11:57:59;;;;;;;;;;;;;;;;;;5072190;28;19908;-63
2023/01/15 12:00:25;;;;;;;;;;;;;;;;;;5071916;28;19916;-63
2023/01/15 12:02:51;;;;;;;;;;;;;;;;;;5072187;28;19920;-64
2023/01/15 12:05:17;;;;;;;;;;;;;;;;;;5072185;28;19908;-63
2023/01/15 12:07:43;;;;;;;;;;;;;;;;;;5072051;28;19915;-62
2023/01/15 12:10:10;;;;;;;;;;;;;;;;;;5071835;28;20292;-63
2023/01/15 12:12:36;;;;;;;;;;;;;;;;;;5072002;28;19909;-63
2023/01/15 12:15:04;;;;;;;;;;;;;;;;;;5071935;28;20057;-63
2023/01/15 12:17:30;;;;;;;;;;;;;;;;;;5072110;28;19908;-63
2023/01/15 12:19:56;;;;;;;;;;;;;;;;;;5071717;28;19909;-63
2023/01/15 12:22:22;;;;;;;;;;;;;;;;;;5070444;28;19913;-63
2023/01/15 12:24:48;;;;;;;;;;;;;;;;;;5071813;28;20066;-62
2023/01/15 12:27:15;;;;;;;;;;;;;;;;;;5071800;28;20241;-63
2023/01/15 12:29:40;;;;;;;;;;;;;;;;;;5070308;28;19909;-63
2023/01/15 12:32:06;;;;;;;;;;;;;;;;;;5071731;28;20288;-63
2023/01/15 12:34:32;;;;;;;;;;;;;;;;;;5070273;28;19915;-64
2023/01/15 12:36:58;;;;;;;;;;;;;;;;;;5071650;28;19916;-63
2023/01/15 12:39:24;;;;;;;;;;;;;;;;;;5071299;28;19913;-62
2023/01/15 12:47:19;;;;;;;;;;;;;;;;;;5078288;28;19911;-63
2023/01/15 12:49:45;;;;;;;;;;;;;;;;;;5077026;28;20292;-63
2023/01/15 12:52:11;;;;;;;;;;;;;;;;;;5078151;28;20276;-62
2023/01/15 12:54:37;;;;;;;;;;;;;;;;;;5078417;28;19916;-63
2023/01/15 12:57:03;;;;;;;;;;;;;;;;;;5076922;28;19904;-62
2023/01/15 12:59:29;;;;;;;;;;;;;;;;;;5076669;28;19908;-61
2023/01/15 13:01:55;;;;;;;;;;;;;;;;;;5078251;28;19913;-63
2023/01/15 13:04:24;;;;;;;;;;;;;;;;;;5078158;28;19962;-63
2023/01/15 13:06:50;;;;;;;;;;;;;;;;;;5076799;28;19908;-63
2023/01/15 13:09:16;;;;;;;;;;;;;;;;;;5077914;28;20281;-62
2023/01/15 13:11:42;;;;;;;;;;;;;;;;;;5078130;28;20438;-64
2023/01/15 13:14:07;;;;;;;;;;;;;;;;;;5077759;28;20315;-64
2023/01/15 13:16:33;;;;;;;;;;;;;;;;;;5077910;28;20369;-63
2023/01/15 13:18:59;;;;;;;;;;;;;;;;;;5077655;28;20285;-64
2023/01/15 13:21:25;;;;;;;;;;;;;;;;;;5077470;28;19920;-64
2023/01/15 13:23:51;;;;;;;;;;;;;;;;;;5077957;28;19915;-63
2023/01/15 13:26:17;;;;;;;;;;;;;;;;;;5077819;28;19995;-64
2023/01/15 13:28:43;;;;;;;;;;;;;;;;;;5077563;28;19908;-64
2023/01/15 13:31:09;;;;;;;;;;;;;;;;;;5076471;28;19905;-64
2023/01/15 13:33:35;;;;;;;;;;;;;;;;;;5077909;28;20019;-63
2023/01/15 13:36:01;;;;;;;;;;;;;;;;;;5078292;28;20003;-64
2023/01/15 13:38:27;;;;;;;;;;;;;;;;;;5077939;28;19909;-64
2023/01/15 13:40:53;;;;;;;;;;;;;;;;;;5077568;28;20288;-62
2023/01/15 13:43:19;;;;;;;;;;;;;;;;;;5077770;28;19951;-64
2023/01/15 13:45:45;;;;;;;;;;;;;;;;;;5077775;28;19958;-64
2023/01/15 13:48:11;;;;;;;;;;;;;;;;;;5077660;28;19909;-64
2023/01/15 13:50:37;;;;;;;;;;;;;;;;;;5077616;28;19915;-64
2023/01/15 13:53:02;;;;;;;;;;;;;;;;;;5077878;28;19916;-64
2023/01/15 13:55:28;;;;;;;;;;;;;;;;;;5073986;28;20313;-64
2023/01/15 13:57:54;;;;;;;;;;;;;;;;;;5074851;28;19951;-64
2023/01/15 14:00:20;;;;;;;;;;;;;;;;;;5074359;28;20298;-64
2023/01/15 14:02:46;;;;;;;;;;;;;;;;;;5074468;28;20298;-64
2023/01/15 14:05:12;;;;;;;;;;;;;;;;;;5074418;28;19973;-64
2023/01/15 14:07:38;;;;;;;;;;;;;;;;;;5074438;28;20062;-64
2023/01/15 14:10:04;;;;;;;;;;;;;;;;;;5074161;28;20012;-64
2023/01/15 14:12:30;;;;;;;;;;;;;;;;;;5074165;28;19946;-63
2023/01/15 14:14:56;;;;;;;;;;;;;;;;;;5074249;28;19908;-63
2023/01/15 14:17:22;;;;;;;;;;;;;;;;;;5074233;28;19909;-64
2023/01/15 14:19:48;;;;;;;;;;;;;;;;;;5073802;28;19931;-64
2023/01/15 14:22:14;;;;;;;;;;;;;;;;;;5074034;28;19927;-67
2023/01/15 14:24:40;;;;;;;;;;;;;;;;;;5072773;28;19913;-64
2023/01/15 14:27:06;;;;;;;;;;;;;;;;;;5074004;28;19908;-64
2023/01/15 14:29:32;;;;;;;;;;;;;;;;;;5072313;28;19991;-64
2023/01/15 14:31:58;;;;;;;;;;;;;;;;;;5072627;28;19966;-66
2023/01/15 14:34:24;;;;;;;;;;;;;;;;;;5073553;28;20297;-63
2023/01/15 14:36:50;;;;;;;;;;;;;;;;;;5072786;28;19908;-63
2023/01/15 14:39:16;;;;;;;;;;;;;;;;;;5073697;28;19908;-63
2023/01/15 14:44:27;;;;;;;;;;;;;;;;;;5053458;28;19934;-59
2023/01/15 14:46:52;;;;;;;;;;;;;;;;;;5053575;28;20420;-60
2023/01/15 14:49:18;;;;;;;;;;;;;;;;;;5053683;28;20284;-60
2023/01/15 14:51:44;;;;;;;;;;;;;;;;;;5053739;28;20284;-61
2023/01/15 14:54:10;;;;;;;;;;;;;;;;;;5053561;28;20361;-60
2023/01/15 14:56:36;;;;;;;;;;;;;;;;;;5053590;28;19912;-59
2023/01/15 14:59:02;;;;;;;;;;;;;;;;;;5035556;28;19909;-61
2023/01/15 15:01:28;;;;;;;;;;;;;;;;;;5053368;28;19916;-60
2023/01/15 15:03:55;;;;;;;;;;;;;;;;;;5035466;28;19916;-59
2023/01/15 15:06:21;;;;;;;;;;;;;;;;;;5052677;28;20003;-60
2023/01/15 15:08:47;;;;;;;;;;;;;;;;;;5052524;28;19956;-59
2023/01/15 15:12:17;;;;;;;;;;;;;;;;;;5053151;28;19966;-58
2023/01/15 15:13:59;;;;;;;;;;;;;;;;;;5052864;28;19916;-59
2023/01/15 15:16:24;;;;;;;;;;;;;;;;;;5053081;28;19912;-58
2023/01/15 15:18:50;;;;;;;;;;;;;;;;;;5053043;28;19915;-58
2023/01/15 15:21:16;;;;;;;;;;;;;;;;;;5052741;28;19917;-60
2023/01/15 15:23:42;;;;;;;;;;;;;;;;;;5052776;28;20015;-60
2023/01/15 15:26:08;;;;;;;;;;;;;;;;;;5052937;28;19908;-60
2023/01/15 15:28:34;;;;;;;;;;;;;;;;;;5052464;28;19999;-60
2023/01/15 15:31:00;;;;;;;;;;;;;;;;;;5034780;28;20007;-60
2023/01/15 15:33:26;;;;;;;;;;;;;;;;;;5052858;28;19956;-60
2023/01/15 15:35:52;;;;;;;;;;;;;;;;;;5052664;28;19909;-60
2023/01/15 15:38:18;;;;;;;;;;;;;;;;;;5052552;28;19916;-60
2023/01/15 15:40:44;;;;;;;;;;;;;;;;;;5052266;28;19924;-60
2023/01/15 15:48:44;;;;;;;;;;;;;;;;;;5052345;28;20000;-60
2023/01/15 15:51:10;;;;;;;;;;;;;;;;;;5034698;28;19909;-60
2023/01/15 15:53:36;;;;;;;;;;;;;;;;;;5034428;28;19909;-60
2023/01/15 15:56:02;;;;;;;;;;;;;;;;;;5052440;28;19909;-60
2023/01/15 15:58:28;;;;;;;;;;;;;;;;;;5034487;28;19909;-60
2023/01/15 16:00:56;;;;;;;;;;;;;;;;;;5052100;28;19916;-60
2023/01/15 16:03:22;;;;;;;;;;;;;;;;;;5052271;28;19930;-60
2023/01/15 16:05:48;;;;;;;;;;;;;;;;;;5052243;28;20377;-60
2023/01/15 16:08:14;;;;;;;;;;;;;;;;;;5051952;28;19936;-60
2023/01/15 16:10:40;;;;;;;;;;;;;;;;;;5052070;28;20381;-60
2023/01/15 16:13:06;;;;;;;;;;;;;;;;;;5052155;28;19912;-60
2023/01/15 16:15:32;;;;;;;;;;;;;;;;;;5052137;28;19909;-60
2023/01/15 16:17:58;;;;;;;;;;;;;;;;;;5032315;28;19955;-60
2023/01/15 16:20:24;;;;;;;;;;;;;;;;;;5051794;28;19909;-60
2023/01/15 16:22:50;;;;;;;;;;;;;;;;;;5051746;28;19912;-59
2023/01/15 16:25:16;;;;;;;;;;;;;;;;;;5051849;28;19909;-60
2023/01/15 16:27:42;;;;;;;;;;;;;;;;;;5051784;28;19905;-60
2023/01/15 16:30:08;;;;;;;;;;;;;;;;;;5051609;28;19955;-60
2023/01/15 16:32:35;;;;;;;;;;;;;;;;;;5051821;28;20464;-59
2023/01/15 16:35:01;;;;;;;;;;;;;;;;;;5051921;28;19999;-59
2023/01/15 16:37:29;;;;;;;;;;;;;;;;;;5050639;28;19956;-60
2023/01/15 16:39:55;;;;;;;;;;;;;;;;;;5051522;28;19908;-60
2023/01/15 16:42:21;;;;;;;;;;;;;;;;;;5051911;28;19966;-59
2023/01/15 16:44:47;;;;;;;;;;;;;;;;;;5051795;28;19939;-60
2023/01/15 16:47:13;;;;;;;;;;;;;;;;;;5051804;28;20261;-59
2023/01/15 16:49:38;;;;;;;;;;;;;;;;;;5051636;28;20391;-59
2023/01/15 16:52:04;;;;;;;;;;;;;;;;;;5051718;28;19924;-59
2023/01/15 16:54:30;;;;;;;;;;;;;;;;;;5051647;28;19909;-57
2023/01/15 16:56:56;;;;;;;;;;;;;;;;;;5052005;28;19919;-58
2023/01/15 16:59:22;;;;;;;;;;;;;;;;;;5051414;28;19909;-58
2023/01/15 17:01:51;;;;;;;;;;;;;;;;;;5051461;28;19966;-58
2023/01/15 17:04:17;;;;;;;;;;;;;;;;;;5052082;28;19913;-58
2023/01/15 17:06:43;;;;;;;;;;;;;;;;;;5051751;28;19999;-57
2023/01/15 17:09:08;;;;;;;;;;;;;;;;;;5051578;28;20397;-58
2023/01/15 17:11:34;;;;;;;;;;;;;;;;;;5051420;28;20293;-58
2023/01/15 17:14:00;;;;;;;;;;;;;;;;;;5051491;28;19952;-59
2023/01/15 17:16:26;;;;;;;;;;;;;;;;;;5051493;28;19909;-57
2023/01/15 17:18:52;;;;;;;;;;;;;;;;;;5051117;28;19909;-58
2023/01/15 17:21:20;;;;;;;;;;;;;;;;;;5051243;28;19920;-59
2023/01/15 17:23:46;;;;;;;;;;;;;;;;;;5051479;28;19909;-59
2023/01/15 17:26:12;;;;;;;;;;;;;;;;;;5033595;28;19923;-59
2023/01/15 17:28:38;;;;;;;;;;;;;;;;;;5051081;28;20003;-59
2023/01/15 17:31:04;;;;;;;;;;;;;;;;;;5035464;28;19912;-56
2023/01/15 17:33:30;;;;;;;;;;;;;;;;;;5055045;28;19909;-58
2023/01/15 17:35:59;;;;;;;;;;;;;;;;;;5055024;28;19916;-58
2023/01/15 17:38:25;;;;;;;;;;;;;;;;;;5055243;28;20345;-58
2023/01/15 17:40:51;;;;;;;;;;;;;;;;;;5054493;28;19971;-57